Airfield :
LOGIN :

Register | Disclaimer

   EN    FR    IT 

 










Legend :    VFR   Marginal VFR   IFR   Intensive IFR   Very Intensive IFR
Visi :
Ceiling :
>= 8 km
>= 3000ft
5 to 8 km
1000 to 3000 ft
1500m to 5 km
500 to 1000 ft
800 to 1500m
200 to 500 ft
< 800m
< 200 ft
Symbols :   Thunderstorms  Fog  Heavy snow  Heavy precipitations  Wind > 20 kt
SIGMETs :     Misc.  Thunderstorms  Icing  Turbulence  Mountain Waves  Volcanic Ashes






- Airport Elevation : 17 ft
- IATA code : GRQ


EHGG - Groningen Eelde

CURRENT METAR :
  • 070725Z AUTO 24005KT 9999 OVC032 02/M00 Q1026 NOSIG

EXPIRED METARs :
  • 070655Z AUTO 25005KT 9999 OVC032 02/M00 Q1026 NOSIG
  • 070625Z AUTO 26005KT 230V290 9999 OVC032 02/M00 Q1026 NOSIG
  • 070555Z AUTO 25006KT 9999 OVC029 02/M00 Q1026 NOSIG
  • 070525Z AUTO 25006KT 9999 OVC032 02/M00 Q1026 NOSIG
  • 070455Z AUTO 24005KT 9999 OVC032 01/M01 Q1026

TAF TAF EHGG
Valid from the 07 at 06:00 until the 08 at 12:00 UTC


070457Z 0706/0812 25005KT 9999 BKN030
BECMG 0709/0712 28010KT
PROB30
TEMPO 0710/0721 7000 -RA -SHRA FEW015TCU BKN020
TEMPO 0721/0803 4000 RADZ BKN008
BECMG 0800/0803 24004KT 4000 BR
PROB40 0803/0808 0800 FG FZFG
BECMG 0808/0811 9999 NSW



MET'MAP, your aeronautical weather chart ! - Copyright ORBIFLY December 2007 - Disclaimer

ORBIFLY MET'MAP TEAM :

Programming & Development : Alexandra Zaïnal
Concept & original design : Baudouin d'Aumeries
Assistance for programming : Marc-Olivier Méhu
Technical & hardware support : Manuel Goepfert

Contact : metmap@orbifly.com




SOURCES & CREDITS :

   NOAA